Time;durP1;ratioP1;P1;durP2;ratioP2;P2;SDS_P1;SDS_P2;PMS_P1;PMS_P2;Temp;Humidity;BMP_temperature;BMP_pressure;BME280_temperature;BME280_humidity;BME280_pressure;Samples;Min_cycle;Max_cycle;Signal;HPM_P1;HPM_P2
2022/03/13 00:01:01;;;;;;;60.00;30.98;;;;;;;;;;4899799;29;20096;-64
2022/03/13 00:03:28;;;;;;;50.60;27.70;;;;;;;;;;4899073;29;20036;-64
2022/03/13 00:05:55;;;;;;;42.10;24.08;;;;;;;;;;4898957;29;20072;-63
2022/03/13 00:08:29;;;;;;;45.30;25.73;;;;;;;;;;4899484;29;20043;-63
2022/03/13 00:11:00;;;;;;;55.95;30.30;;;;;;;;;;4899175;29;20479;-63
2022/03/13 00:13:32;;;;;;;28.23;16.50;;;;;;;;;;4899066;29;20100;-64
2022/03/13 00:16:08;;;;;;;32.63;17.00;;;;;;;;;;4899119;29;20044;-63
2022/03/13 00:18:46;;;;;;;47.28;26.50;;;;;;;;;;4899643;29;20076;-63
2022/03/13 00:21:14;;;;;;;43.40;25.00;;;;;;;;;;4899639;29;20072;-63
2022/03/13 00:23:42;;;;;;;35.80;20.98;;;;;;;;;;4899049;29;20020;-63
2022/03/13 00:26:08;;;;;;;38.40;21.45;;;;;;;;;;4899263;29;20124;-62
2022/03/13 00:28:36;;;;;;;38.88;20.83;;;;;;;;;;4899437;29;20091;-69
2022/03/13 00:31:03;;;;;;;33.55;19.63;;;;;;;;;;4899174;29;20041;-63
2022/03/13 00:33:29;;;;;;;29.65;17.70;;;;;;;;;;4899111;29;20080;-64
2022/03/13 00:35:55;;;;;;;37.65;17.63;;;;;;;;;;4899008;29;20119;-63
2022/03/13 00:38:24;;;;;;;33.47;18.17;;;;;;;;;;4898998;29;20031;-64
2022/03/13 00:40:51;;;;;;;36.20;18.63;;;;;;;;;;4898932;29;20029;-62
2022/03/13 00:43:19;;;;;;;37.80;19.08;;;;;;;;;;4899041;29;20028;-63
2022/03/13 00:45:45;;;;;;;33.13;17.17;;;;;;;;;;4898560;29;20033;-63
2022/03/13 00:48:12;;;;;;;37.35;18.30;;;;;;;;;;4898936;29;20029;-64
2022/03/13 00:50:38;;;;;;;34.03;17.40;;;;;;;;;;4898876;29;20053;-63
2022/03/13 00:53:05;;;;;;;38.05;19.58;;;;;;;;;;4898969;29;20024;-63
2022/03/13 00:55:32;;;;;;;37.33;20.45;;;;;;;;;;4898828;29;20112;-65
2022/03/13 00:57:57;;;;;;;33.65;20.02;;;;;;;;;;4898180;29;20096;-62
2022/03/13 01:00:23;;;;;;;39.03;21.90;;;;;;;;;;4898860;29;20429;-66
2022/03/13 01:02:49;;;;;;;37.83;21.45;;;;;;;;;;4898993;29;20028;-62
2022/03/13 01:05:27;;;;;;;47.38;23.05;;;;;;;;;;4898955;29;20539;-63
2022/03/13 01:07:55;;;;;;;121.43;44.22;;;;;;;;;;4898722;29;20484;-65
2022/03/13 01:10:22;;;;;;;119.95;44.70;;;;;;;;;;4897905;29;20032;-64
2022/03/13 01:12:50;;;;;;;138.20;44.97;;;;;;;;;;4898683;29;20036;-62
2022/03/13 01:15:16;;;;;;;170.45;57.33;;;;;;;;;;4898623;29;20039;-63
2022/03/13 01:17:43;;;;;;;199.43;64.47;;;;;;;;;;4898243;29;20448;-64
2022/03/13 01:20:17;;;;;;;188.75;63.30;;;;;;;;;;4898530;29;20033;-64
2022/03/13 01:22:44;;;;;;;178.38;54.90;;;;;;;;;;4898132;29;20049;-67
2022/03/13 01:25:10;;;;;;;169.18;55.40;;;;;;;;;;4894173;29;20627;-68
2022/03/13 01:27:36;;;;;;;156.85;53.53;;;;;;;;;;4887911;29;20133;-72
2022/03/13 01:30:03;;;;;;;139.55;50.38;;;;;;;;;;4893993;29;20072;-70
2022/03/13 01:32:32;;;;;;;138.88;44.80;;;;;;;;;;4898132;29;20028;-69
2022/03/13 01:34:58;;;;;;;112.63;39.17;;;;;;;;;;4898271;29;20020;-66
2022/03/13 01:37:29;;;;;;;113.95;37.28;;;;;;;;;;4909213;29;20388;-69
2022/03/13 01:39:58;;;;;;;90.22;33.58;;;;;;;;;;4890972;29;20073;-63
2022/03/13 01:42:25;;;;;;;92.78;33.25;;;;;;;;;;4898313;29;20040;-69
2022/03/13 01:44:51;;;;;;;77.60;30.27;;;;;;;;;;4898447;29;20039;-63
2022/03/13 01:47:19;;;;;;;63.63;27.95;;;;;;;;;;4898216;29;20029;-68
2022/03/13 01:49:46;;;;;;;58.00;24.73;;;;;;;;;;4897960;29;20037;-70
2022/03/13 01:52:12;;;;;;;53.92;24.02;;;;;;;;;;4897998;29;20032;-63
2022/03/13 01:54:40;;;;;;;46.33;22.10;;;;;;;;;;4898009;29;20424;-68
2022/03/13 01:57:05;;;;;;;49.75;24.27;;;;;;;;;;4898020;29;20029;-69
2022/03/13 01:59:31;;;;;;;51.58;23.23;;;;;;;;;;4898097;29;20035;-63
2022/03/13 02:01:57;;;;;;;45.58;23.40;;;;;;;;;;4898038;29;20032;-67
2022/03/13 02:04:26;;;;;;;44.35;22.67;;;;;;;;;;4897492;29;20088;-69
2022/03/13 02:06:58;;;;;;;42.00;20.92;;;;;;;;;;4897489;29;20051;-65
2022/03/13 02:09:28;;;;;;;38.08;19.55;;;;;;;;;;4896966;29;20420;-69
2022/03/13 02:11:56;;;;;;;44.60;19.48;;;;;;;;;;4897759;29;20028;-69
2022/03/13 02:14:23;;;;;;;49.30;23.20;;;;;;;;;;4897107;29;20052;-69
2022/03/13 02:16:50;;;;;;;44.58;21.70;;;;;;;;;;4897437;29;20555;-63
2022/03/13 02:19:17;;;;;;;59.47;26.27;;;;;;;;;;4897442;29;20120;-66
2022/03/13 02:21:48;;;;;;;42.13;20.88;;;;;;;;;;4897640;29;20092;-71
2022/03/13 02:24:19;;;;;;;49.15;21.67;;;;;;;;;;4897265;29;20090;-62
2022/03/13 02:26:58;;;;;;;46.85;22.13;;;;;;;;;;4896822;29;20472;-66
2022/03/13 02:29:24;;;;;;;50.67;24.55;;;;;;;;;;4897226;29;20080;-64
2022/03/13 02:31:50;;;;;;;44.92;23.55;;;;;;;;;;4897490;29;20032;-63
2022/03/13 02:34:19;;;;;;;57.60;25.92;;;;;;;;;;4897336;29;20092;-65
2022/03/13 02:36:49;;;;;;;56.78;25.73;;;;;;;;;;4897411;29;20440;-72
2022/03/13 02:39:15;;;;;;;59.03;26.70;;;;;;;;;;4897476;29;20043;-67
2022/03/13 02:41:42;;;;;;;48.65;24.38;;;;;;;;;;4897428;29;20437;-63
2022/03/13 02:44:11;;;;;;;46.72;23.95;;;;;;;;;;4897495;29;20100;-64
2022/03/13 02:46:54;;;;;;;54.67;26.40;;;;;;;;;;4897214;29;20106;-64
2022/03/13 02:49:21;;;;;;;54.57;25.10;;;;;;;;;;4897431;29;20041;-64
2022/03/13 02:51:51;;;;;;;50.58;26.23;;;;;;;;;;4897139;29;20615;-67
2022/03/13 02:54:17;;;;;;;43.55;22.00;;;;;;;;;;4896875;29;20040;-64
2022/03/13 02:56:45;;;;;;;40.30;21.77;;;;;;;;;;4896921;29;20060;-62
2022/03/13 02:59:12;;;;;;;46.28;22.67;;;;;;;;;;4896866;29;20047;-64
2022/03/13 03:01:39;;;;;;;40.55;23.17;;;;;;;;;;4896543;29;20032;-63
2022/03/13 03:04:05;;;;;;;46.45;22.67;;;;;;;;;;4897421;29;20041;-67
2022/03/13 03:06:32;;;;;;;47.15;23.70;;;;;;;;;;4897168;29;20024;-62
2022/03/13 03:09:02;;;;;;;44.90;23.70;;;;;;;;;;4896824;29;20499;-64
2022/03/13 03:11:29;;;;;;;58.97;24.27;;;;;;;;;;4897105;29;20025;-69
2022/03/13 03:13:55;;;;;;;41.53;21.90;;;;;;;;;;4896764;29;20517;-64
2022/03/13 03:16:21;;;;;;;50.42;23.60;;;;;;;;;;4897105;29;20115;-73
2022/03/13 03:18:47;;;;;;;50.33;24.42;;;;;;;;;;4896919;29;20029;-72
2022/03/13 03:21:13;;;;;;;45.88;23.15;;;;;;;;;;4898256;29;20176;-71
2022/03/13 03:23:39;;;;;;;46.67;23.95;;;;;;;;;;4900926;29;20092;-68
2022/03/13 03:26:06;;;;;;;42.33;22.95;;;;;;;;;;4900759;29;20017;-71
2022/03/13 03:28:34;;;;;;;44.50;23.50;;;;;;;;;;4900571;29;20480;-66
2022/03/13 03:31:00;;;;;;;46.65;23.85;;;;;;;;;;4900740;29;20039;-67
2022/03/13 03:33:27;;;;;;;53.40;25.42;;;;;;;;;;4900500;29;20033;-72
2022/03/13 03:35:53;;;;;;;46.85;23.42;;;;;;;;;;4900320;29;20456;-69
2022/03/13 03:38:19;;;;;;;51.63;23.25;;;;;;;;;;4900610;29;20468;-73
2022/03/13 03:40:44;;;;;;;46.63;22.40;;;;;;;;;;4900423;29;20028;-67
2022/03/13 03:43:10;;;;;;;45.60;22.70;;;;;;;;;;4900423;29;20519;-70
2022/03/13 03:45:36;;;;;;;54.50;23.17;;;;;;;;;;4900142;29;20395;-65
2022/03/13 03:48:03;;;;;;;40.55;21.35;;;;;;;;;;4914521;29;20033;-67
2022/03/13 03:50:29;;;;;;;42.55;21.83;;;;;;;;;;4898499;29;20024;-72
2022/03/13 03:52:56;;;;;;;48.50;22.90;;;;;;;;;;4900111;29;20036;-70
2022/03/13 03:55:22;;;;;;;40.85;21.00;;;;;;;;;;4900530;29;20447;-69
2022/03/13 03:57:49;;;;;;;42.58;22.00;;;;;;;;;;4900472;29;20030;-72
2022/03/13 04:00:16;;;;;;;38.38;20.02;;;;;;;;;;4900093;29;20392;-68
2022/03/13 04:02:42;;;;;;;42.22;21.30;;;;;;;;;;4900089;29;20036;-67
2022/03/13 04:05:09;;;;;;;44.85;20.58;;;;;;;;;;4900304;29;20055;-69
2022/03/13 04:07:38;;;;;;;40.17;21.80;;;;;;;;;;4901274;29;20080;-70
2022/03/13 04:10:05;;;;;;;43.42;22.95;;;;;;;;;;4900598;29;20119;-68
2022/03/13 04:12:32;;;;;;;45.20;23.38;;;;;;;;;;4899337;29;20037;-71
2022/03/13 04:14:58;;;;;;;44.28;22.85;;;;;;;;;;4899963;29;20407;-70
2022/03/13 04:17:24;;;;;;;41.95;23.05;;;;;;;;;;4900089;29;20063;-71
2022/03/13 04:19:50;;;;;;;47.60;23.65;;;;;;;;;;4899894;29;20029;-71
2022/03/13 04:22:16;;;;;;;44.65;24.13;;;;;;;;;;4899859;29;20510;-65
2022/03/13 04:24:42;;;;;;;45.55;25.15;;;;;;;;;;4899669;29;20036;-64
2022/03/13 04:27:08;;;;;;;51.58;24.15;;;;;;;;;;4899194;29;20059;-62
2022/03/13 04:29:34;;;;;;;41.97;23.15;;;;;;;;;;4900510;29;20050;-64
2022/03/13 04:32:05;;;;;;;55.85;25.05;;;;;;;;;;4898603;29;20425;-64
2022/03/13 04:34:32;;;;;;;40.10;20.63;;;;;;;;;;4900140;29;20128;-65
2022/03/13 04:36:59;;;;;;;40.22;19.38;;;;;;;;;;4900282;29;20021;-65
2022/03/13 04:39:24;;;;;;;42.40;19.98;;;;;;;;;;4900371;29;20040;-64
2022/03/13 04:41:51;;;;;;;36.35;19.25;;;;;;;;;;4900459;29;20436;-64
2022/03/13 04:44:17;;;;;;;35.60;17.55;;;;;;;;;;4899762;29;20044;-64
2022/03/13 04:46:43;;;;;;;39.47;19.17;;;;;;;;;;4900167;29;20476;-63
2022/03/13 04:49:09;;;;;;;36.42;20.83;;;;;;;;;;4900186;29;20048;-63
2022/03/13 04:51:39;;;;;;;40.13;21.90;;;;;;;;;;4900274;29;20029;-65
2022/03/13 04:54:06;;;;;;;41.15;20.38;;;;;;;;;;4900333;29;20433;-63
2022/03/13 04:56:33;;;;;;;49.67;23.35;;;;;;;;;;4900566;29;20040;-64
2022/03/13 04:58:59;;;;;;;48.38;23.83;;;;;;;;;;4900422;29;20048;-68
2022/03/13 05:01:25;;;;;;;45.03;22.55;;;;;;;;;;4896342;29;20490;-65
2022/03/13 05:03:51;;;;;;;44.45;23.20;;;;;;;;;;4889347;29;20116;-66
2022/03/13 05:06:17;;;;;;;49.17;23.55;;;;;;;;;;4881120;29;20429;-64
2022/03/13 05:08:44;;;;;;;55.25;25.27;;;;;;;;;;4881074;29;20033;-63
2022/03/13 05:11:10;;;;;;;49.22;24.20;;;;;;;;;;4898461;29;20024;-71
2022/03/13 05:13:36;;;;;;;51.80;24.40;;;;;;;;;;4899540;29;20048;-78
2022/03/13 05:16:02;;;;;;;66.88;29.95;;;;;;;;;;4898830;29;20153;-83
2022/03/13 05:18:29;;;;;;;80.70;36.13;;;;;;;;;;4899752;29;20040;-78
2022/03/13 05:20:55;;;;;;;68.28;33.67;;;;;;;;;;4895400;29;20032;-78
2022/03/13 05:23:21;;;;;;;70.28;31.63;;;;;;;;;;4898571;29;20060;-77
2022/03/13 05:25:47;;;;;;;66.82;31.13;;;;;;;;;;4899062;29;20024;-79
2022/03/13 05:28:13;;;;;;;61.80;29.90;;;;;;;;;;4914107;29;20119;-74
2022/03/13 05:30:39;;;;;;;57.53;28.20;;;;;;;;;;4900013;29;20485;-76
2022/03/13 05:33:06;;;;;;;58.03;28.63;;;;;;;;;;4898407;29;20037;-74
2022/03/13 05:35:33;;;;;;;56.33;28.17;;;;;;;;;;4899258;29;20032;-78
2022/03/13 05:37:59;;;;;;;62.20;28.85;;;;;;;;;;4899224;29;20037;-75
2022/03/13 05:40:25;;;;;;;54.80;27.20;;;;;;;;;;4899319;29;20071;-77
2022/03/13 05:42:59;;;;;;;55.88;26.58;;;;;;;;;;4899188;29;20049;-70
2022/03/13 05:45:27;;;;;;;48.15;25.23;;;;;;;;;;4899839;29;20049;-78
2022/03/13 05:48:10;;;;;;;57.75;26.63;;;;;;;;;;4898952;29;20059;-76
2022/03/13 05:50:36;;;;;;;50.53;25.55;;;;;;;;;;4892144;29;20052;-76
2022/03/13 05:53:03;;;;;;;52.25;28.13;;;;;;;;;;4902497;29;20033;-73
2022/03/13 05:55:29;;;;;;;50.40;26.08;;;;;;;;;;4880262;29;20404;-76
2022/03/13 05:57:56;;;;;;;48.47;24.85;;;;;;;;;;4880194;29;20021;-75
2022/03/13 06:00:25;;;;;;;43.92;24.90;;;;;;;;;;4879733;29;20044;-78
2022/03/13 06:02:51;;;;;;;47.42;24.45;;;;;;;;;;4879792;29;20120;-74
2022/03/13 06:05:18;;;;;;;39.17;21.95;;;;;;;;;;4879895;29;20540;-75
2022/03/13 06:07:49;;;;;;;42.03;22.77;;;;;;;;;;4879898;29;20033;-75
2022/03/13 06:10:16;;;;;;;41.15;22.48;;;;;;;;;;4879756;29;20037;-74
2022/03/13 06:12:42;;;;;;;44.85;22.55;;;;;;;;;;4879740;29;20033;-74
2022/03/13 06:15:14;;;;;;;41.70;23.30;;;;;;;;;;4879380;29;20489;-70
2022/03/13 06:17:42;;;;;;;43.28;23.98;;;;;;;;;;4879551;29;20064;-74
2022/03/13 06:20:10;;;;;;;38.30;23.98;;;;;;;;;;4879557;29;20112;-70
2022/03/13 06:22:38;;;;;;;39.17;23.50;;;;;;;;;;4879641;29;20085;-71
2022/03/13 06:25:09;;;;;;;40.85;23.10;;;;;;;;;;4895498;29;20036;-72
2022/03/13 06:27:36;;;;;;;43.67;22.25;;;;;;;;;;4897498;29;20436;-69
2022/03/13 06:30:10;;;;;;;35.72;20.63;;;;;;;;;;4898320;29;20112;-69
2022/03/13 06:32:36;;;;;;;37.63;22.98;;;;;;;;;;4898328;29;20115;-71
2022/03/13 06:35:03;;;;;;;42.75;23.63;;;;;;;;;;4898376;29;20038;-70
2022/03/13 06:37:28;;;;;;;34.25;19.50;;;;;;;;;;4898346;29;20041;-71
2022/03/13 06:39:54;;;;;;;35.17;20.15;;;;;;;;;;4898266;29;20058;-70
2022/03/13 06:42:20;;;;;;;38.05;21.83;;;;;;;;;;4898106;29;20037;-78
2022/03/13 06:44:45;;;;;;;36.80;20.40;;;;;;;;;;4898160;29;20032;-70
2022/03/13 06:47:13;;;;;;;32.70;17.55;;;;;;;;;;4898141;29;20152;-69
2022/03/13 06:49:39;;;;;;;28.35;17.90;;;;;;;;;;4897939;29;20460;-70
2022/03/13 06:52:06;;;;;;;32.85;18.48;;;;;;;;;;4897834;29;20051;-71
2022/03/13 06:54:31;;;;;;;27.38;17.98;;;;;;;;;;4898008;29;20040;-70
2022/03/13 06:56:57;;;;;;;27.52;17.55;;;;;;;;;;4897659;29;20037;-71
2022/03/13 06:59:23;;;;;;;32.92;18.48;;;;;;;;;;4898043;29;20028;-70
2022/03/13 07:01:49;;;;;;;28.73;16.20;;;;;;;;;;4897883;29;20060;-71
2022/03/13 07:04:15;;;;;;;28.38;14.50;;;;;;;;;;4897768;29;20099;-71
2022/03/13 07:06:41;;;;;;;25.25;14.20;;;;;;;;;;4897550;29;20040;-71
2022/03/13 07:09:08;;;;;;;22.35;12.63;;;;;;;;;;4897676;29;20104;-71
2022/03/13 07:11:34;;;;;;;19.42;12.55;;;;;;;;;;4897953;29;20160;-70
2022/03/13 07:14:03;;;;;;;16.55;10.48;;;;;;;;;;4897490;29;20036;-74
2022/03/13 07:16:29;;;;;;;15.93;10.15;;;;;;;;;;4899640;29;20028;-80
2022/03/13 07:18:55;;;;;;;14.52;9.80;;;;;;;;;;4897975;29;20040;-75
2022/03/13 07:21:21;;;;;;;14.80;9.05;;;;;;;;;;4897445;29;20033;-75
2022/03/13 07:23:46;;;;;;;13.45;9.23;;;;;;;;;;4896559;29;20020;-73
2022/03/13 07:26:14;;;;;;;15.60;9.50;;;;;;;;;;4897906;29;20032;-80
2022/03/13 07:28:40;;;;;;;14.07;9.15;;;;;;;;;;4897128;29;20115;-79
2022/03/13 07:31:06;;;;;;;15.65;9.82;;;;;;;;;;4896540;29;20131;-77
2022/03/13 07:33:32;;;;;;;15.73;9.27;;;;;;;;;;4897061;29;20036;-79
2022/03/13 07:35:58;;;;;;;14.95;9.10;;;;;;;;;;4897503;29;20050;-72
2022/03/13 07:38:24;;;;;;;13.75;9.52;;;;;;;;;;4897515;29;20108;-78
2022/03/13 07:40:50;;;;;;;14.70;9.57;;;;;;;;;;4897598;29;20084;-79
2022/03/13 07:43:16;;;;;;;14.27;9.45;;;;;;;;;;4897420;29;20033;-75
2022/03/13 07:45:42;;;;;;;15.00;9.80;;;;;;;;;;4897629;29;20051;-74
2022/03/13 07:48:08;;;;;;;16.15;9.55;;;;;;;;;;4897319;29;20037;-76
2022/03/13 07:50:34;;;;;;;13.88;9.40;;;;;;;;;;4897879;29;20040;-74
2022/03/13 07:53:01;;;;;;;14.77;9.63;;;;;;;;;;4897585;29;20037;-76
2022/03/13 07:55:27;;;;;;;16.95;11.63;;;;;;;;;;4898825;29;20048;-79
2022/03/13 07:57:52;;;;;;;13.13;8.70;;;;;;;;;;4897571;29;20025;-72
2022/03/13 08:00:21;;;;;;;19.83;8.98;;;;;;;;;;4897570;29;20059;-71
2022/03/13 08:02:48;;;;;;;16.15;9.23;;;;;;;;;;4895691;29;20084;-73
2022/03/13 08:05:16;;;;;;;16.08;9.10;;;;;;;;;;4898784;29;20541;-70
2022/03/13 08:07:42;;;;;;;16.00;9.43;;;;;;;;;;4899688;29;20050;-70
2022/03/13 08:10:09;;;;;;;16.80;9.38;;;;;;;;;;4898228;29;20033;-71
2022/03/13 08:12:35;;;;;;;18.38;9.50;;;;;;;;;;4892001;29;20223;-72
2022/03/13 08:15:00;;;;;;;16.45;10.00;;;;;;;;;;4900696;29;20516;-72
2022/03/13 08:17:26;;;;;;;14.85;10.05;;;;;;;;;;4901033;29;20037;-70
2022/03/13 08:19:56;;;;;;;17.98;9.93;;;;;;;;;;4899645;29;20482;-71
2022/03/13 08:22:22;;;;;;;18.35;11.35;;;;;;;;;;4898636;29;20119;-68
2022/03/13 08:24:48;;;;;;;14.40;9.85;;;;;;;;;;4889689;29;20367;-75
2022/03/13 08:27:15;;;;;;;13.95;9.82;;;;;;;;;;4899600;29;20113;-72
2022/03/13 08:29:41;;;;;;;14.63;9.82;;;;;;;;;;4891806;29;20025;-73
2022/03/13 08:32:08;;;;;;;15.18;10.25;;;;;;;;;;4879541;29;20052;-71
2022/03/13 08:34:34;;;;;;;14.82;9.65;;;;;;;;;;4880500;29;20523;-71
2022/03/13 08:37:00;;;;;;;13.57;9.90;;;;;;;;;;4880700;29;20037;-69
2022/03/13 08:39:26;;;;;;;14.82;10.02;;;;;;;;;;4889379;29;20032;-78
2022/03/13 08:41:52;;;;;;;15.63;9.98;;;;;;;;;;4898590;29;20099;-80
2022/03/13 08:44:18;;;;;;;13.27;9.27;;;;;;;;;;4896749;29;20404;-71
2022/03/13 08:46:44;;;;;;;17.33;10.68;;;;;;;;;;4897088;29;20063;-71
2022/03/13 08:49:10;;;;;;;19.15;10.88;;;;;;;;;;4902086;29;20031;-70
2022/03/13 08:51:36;;;;;;;16.17;10.68;;;;;;;;;;4891328;29;20037;-70
2022/03/13 08:54:01;;;;;;;19.20;10.40;;;;;;;;;;4907587;29;20091;-71
2022/03/13 08:56:27;;;;;;;15.73;10.13;;;;;;;;;;4896424;29;20048;-71
2022/03/13 08:58:54;;;;;;;22.17;10.35;;;;;;;;;;4909186;29;20032;-73
2022/03/13 09:01:22;;;;;;;16.25;9.60;;;;;;;;;;4898209;29;20045;-70
2022/03/13 09:03:48;;;;;;;14.07;9.10;;;;;;;;;;4895093;29;20021;-71
2022/03/13 09:06:14;;;;;;;13.90;9.40;;;;;;;;;;4897542;29;20036;-73
2022/03/13 09:08:40;;;;;;;15.60;9.40;;;;;;;;;;4912506;29;20488;-70
2022/03/13 09:11:08;;;;;;;15.35;8.85;;;;;;;;;;4897868;29;20448;-71
2022/03/13 09:13:35;;;;;;;14.50;9.23;;;;;;;;;;4898316;29;20139;-71
2022/03/13 09:16:01;;;;;;;13.02;9.07;;;;;;;;;;4895131;29;20029;-73
2022/03/13 09:18:27;;;;;;;18.45;9.60;;;;;;;;;;4889704;29;20112;-74
2022/03/13 09:20:53;;;;;;;16.48;9.82;;;;;;;;;;4894740;29;20032;-73
2022/03/13 09:23:19;;;;;;;14.23;9.27;;;;;;;;;;4898016;29;20029;-77
2022/03/13 09:25:44;;;;;;;12.80;8.25;;;;;;;;;;4899080;29;20115;-77
2022/03/13 09:28:11;;;;;;;15.48;9.48;;;;;;;;;;4903992;29;20027;-70
2022/03/13 09:30:37;;;;;;;12.75;8.27;;;;;;;;;;4908553;29;20028;-74
2022/03/13 09:33:03;;;;;;;15.05;8.98;;;;;;;;;;4907848;29;20052;-81
2022/03/13 09:35:29;;;;;;;12.75;8.48;;;;;;;;;;4908031;29;20040;-75
2022/03/13 09:37:54;;;;;;;11.75;7.70;;;;;;;;;;4903790;29;20178;-72
2022/03/13 09:40:20;;;;;;;15.38;8.52;;;;;;;;;;4900556;29;20037;-75
2022/03/13 09:42:47;;;;;;;15.35;8.40;;;;;;;;;;4908455;29;20021;-75
2022/03/13 09:45:14;;;;;;;15.25;9.07;;;;;;;;;;4907546;29;20503;-71
2022/03/13 09:47:40;;;;;;;15.95;8.95;;;;;;;;;;4928903;29;20036;-70
2022/03/13 09:50:08;;;;;;;14.23;9.45;;;;;;;;;;4909449;29;20230;-74
2022/03/13 09:52:36;;;;;;;12.18;8.20;;;;;;;;;;4902701;29;20025;-71
2022/03/13 09:55:02;;;;;;;16.70;8.40;;;;;;;;;;4898179;29;20032;-70
2022/03/13 09:57:28;;;;;;;12.13;8.43;;;;;;;;;;4898293;29;20024;-71
2022/03/13 09:59:54;;;;;;;12.27;8.02;;;;;;;;;;4898151;29;20112;-71
2022/03/13 10:02:20;;;;;;;14.82;8.15;;;;;;;;;;4898180;29;20128;-68
2022/03/13 10:04:46;;;;;;;27.17;16.00;;;;;;;;;;4898316;29;20103;-68
2022/03/13 10:07:14;;;;;;;12.48;8.30;;;;;;;;;;4897006;29;20029;-70
2022/03/13 10:09:43;;;;;;;14.80;7.50;;;;;;;;;;4897597;29;20037;-71
2022/03/13 10:12:16;;;;;;;14.43;8.52;;;;;;;;;;4898253;29;20029;-72
2022/03/13 10:15:05;;;;;;;12.70;7.95;;;;;;;;;;4897902;29;20060;-70
2022/03/13 10:17:33;;;;;;;12.68;8.35;;;;;;;;;;4895237;29;20056;-70
2022/03/13 10:20:20;;;;;;;11.80;7.28;;;;;;;;;;4897953;29;20029;-72
2022/03/13 10:22:49;;;;;;;12.10;7.65;;;;;;;;;;4897557;29;20033;-70
2022/03/13 10:25:34;;;;;;;13.80;7.95;;;;;;;;;;4896973;29;20024;-70
2022/03/13 10:28:11;;;;;;;14.07;8.90;;;;;;;;;;4897893;29;20059;-70
2022/03/13 10:30:37;;;;;;;12.25;7.63;;;;;;;;;;4897077;29;20047;-69
2022/03/13 10:33:03;;;;;;;13.70;7.88;;;;;;;;;;4897968;29;20380;-69
2022/03/13 10:35:29;;;;;;;12.25;7.75;;;;;;;;;;4897512;29;20118;-69
2022/03/13 10:37:55;;;;;;;14.27;7.85;;;;;;;;;;4897763;29;20036;-70
2022/03/13 10:40:24;;;;;;;12.77;7.80;;;;;;;;;;4897611;29;20041;-70
2022/03/13 10:42:53;;;;;;;9.90;6.85;;;;;;;;;;4897653;29;20116;-71
2022/03/13 10:45:47;;;;;;;10.52;7.68;;;;;;;;;;4897622;29;20033;-71
2022/03/13 10:48:23;;;;;;;12.57;7.77;;;;;;;;;;4897506;29;20504;-70
2022/03/13 10:50:51;;;;;;;16.60;9.10;;;;;;;;;;4897361;29;20056;-71
2022/03/13 10:53:19;;;;;;;12.82;6.68;;;;;;;;;;4897121;29;20032;-69
2022/03/13 10:56:03;;;;;;;9.93;5.85;;;;;;;;;;4894095;29;20384;-67
2022/03/13 10:58:34;;;;;;;12.70;7.20;;;;;;;;;;4878649;29;20033;-69
2022/03/13 11:01:04;;;;;;;12.02;6.57;;;;;;;;;;4883659;29;20057;-69
2022/03/13 11:03:32;;;;;;;16.60;5.80;;;;;;;;;;4895796;29;20119;-70
2022/03/13 11:05:59;;;;;;;10.18;6.40;;;;;;;;;;4895755;29;20491;-69
2022/03/13 11:08:26;;;;;;;10.32;6.60;;;;;;;;;;4895849;29;20048;-69
2022/03/13 11:10:53;;;;;;;9.23;6.25;;;;;;;;;;4895665;29;20031;-71
2022/03/13 11:13:24;;;;;;;9.75;6.90;;;;;;;;;;4897113;29;20096;-69
2022/03/13 11:15:54;;;;;;;9.68;6.50;;;;;;;;;;4897100;29;20041;-72
2022/03/13 11:18:24;;;;;;;11.50;6.10;;;;;;;;;;4896589;29;20123;-72
2022/03/13 11:20:50;;;;;;;11.27;6.00;;;;;;;;;;4897156;29;20040;-73
2022/03/13 11:23:17;;;;;;;11.68;5.88;;;;;;;;;;4895023;29;20348;-74
2022/03/13 11:25:44;;;;;;;9.10;6.10;;;;;;;;;;4895279;29;20069;-75
2022/03/13 11:28:10;;;;;;;13.07;6.70;;;;;;;;;;4895442;29;20029;-73
2022/03/13 11:30:37;;;;;;;13.90;6.28;;;;;;;;;;4895106;29;20044;-69
2022/03/13 11:33:03;;;;;;;10.80;5.93;;;;;;;;;;4895325;29;20048;-70
2022/03/13 11:35:31;;;;;;;11.80;5.75;;;;;;;;;;4895563;29;20486;-73
2022/03/13 11:38:02;;;;;;;9.68;5.70;;;;;;;;;;4910406;29;20076;-68
2022/03/13 11:40:30;;;;;;;8.23;5.45;;;;;;;;;;4894947;29;20427;-69
2022/03/13 11:43:05;;;;;;;9.20;5.80;;;;;;;;;;4899886;29;20028;-68
2022/03/13 11:45:35;;;;;;;11.50;6.30;;;;;;;;;;4901024;29;20035;-68
2022/03/13 11:48:14;;;;;;;8.43;6.05;;;;;;;;;;4900983;29;20045;-67
2022/03/13 11:50:47;;;;;;;12.05;6.55;;;;;;;;;;4900740;29;20048;-66
2022/03/13 11:53:16;;;;;;;11.50;7.28;;;;;;;;;;4901067;29;20036;-67
2022/03/13 11:56:27;;;;;;;12.90;7.10;;;;;;;;;;4900731;29;20476;-70
2022/03/13 11:59:15;;;;;;;10.38;5.70;;;;;;;;;;4898588;29;20523;-69
2022/03/13 12:01:43;;;;;;;11.60;7.05;;;;;;;;;;4900336;29;20061;-68
2022/03/13 12:04:09;;;;;;;17.05;9.02;;;;;;;;;;4900591;29;20033;-68
2022/03/13 12:06:43;;;;;;;10.55;5.47;;;;;;;;;;4900420;29;20049;-67
2022/03/13 12:09:14;;;;;;;12.98;6.53;;;;;;;;;;4900446;29;20033;-68
2022/03/13 12:11:56;;;;;;;9.85;5.97;;;;;;;;;;4900174;29;20036;-68
2022/03/13 12:14:59;;;;;;;11.15;6.57;;;;;;;;;;4899806;29;20085;-67
2022/03/13 12:17:31;;;;;;;13.20;6.72;;;;;;;;;;4900428;29;20040;-68
2022/03/13 12:20:00;;;;;;;13.40;6.50;;;;;;;;;;4900166;29;20037;-68
2022/03/13 12:22:30;;;;;;;7.60;5.38;;;;;;;;;;4900090;29;20551;-70
2022/03/13 12:25:02;;;;;;;7.30;4.78;;;;;;;;;;4900260;29;20044;-68
2022/03/13 12:27:28;;;;;;;12.80;7.35;;;;;;;;;;4900415;29;20115;-67
2022/03/13 12:29:57;;;;;;;15.13;7.13;;;;;;;;;;4900085;29;20104;-68
2022/03/13 12:32:34;;;;;;;9.13;5.60;;;;;;;;;;4900078;29;20424;-68
2022/03/13 12:35:01;;;;;;;10.48;5.30;;;;;;;;;;4914358;29;20045;-68
2022/03/13 12:37:27;;;;;;;11.77;4.72;;;;;;;;;;4899785;29;20025;-68
2022/03/13 12:39:58;;;;;;;8.15;4.75;;;;;;;;;;4899830;29;20051;-68
2022/03/13 12:42:30;;;;;;;14.35;7.93;;;;;;;;;;4899708;29;20044;-69
2022/03/13 12:45:09;;;;;;;7.30;4.25;;;;;;;;;;4899859;29;20092;-67
2022/03/13 12:47:39;;;;;;;12.88;6.88;;;;;;;;;;4899947;29;20063;-68
2022/03/13 12:50:09;;;;;;;8.85;5.40;;;;;;;;;;4899717;29;20052;-66
2022/03/13 12:52:35;;;;;;;6.80;4.00;;;;;;;;;;4898264;29;20043;-66
2022/03/13 12:55:01;;;;;;;7.57;5.10;;;;;;;;;;4898796;29;20052;-66
2022/03/13 12:57:28;;;;;;;10.00;5.65;;;;;;;;;;4899858;29;20041;-66
2022/03/13 12:59:54;;;;;;;8.15;4.80;;;;;;;;;;4899549;29;20388;-67
2022/03/13 13:02:26;;;;;;;19.40;10.27;;;;;;;;;;4899152;29;20120;-69
2022/03/13 13:04:55;;;;;;;8.77;5.13;;;;;;;;;;4898993;29;20492;-69
2022/03/13 13:07:33;;;;;;;12.10;5.70;;;;;;;;;;4898824;29;20435;-67
2022/03/13 13:10:00;;;;;;;7.88;4.63;;;;;;;;;;4898531;29;20032;-67
2022/03/13 13:12:32;;;;;;;7.57;4.78;;;;;;;;;;4898956;29;20048;-67
2022/03/13 13:15:03;;;;;;;8.25;3.95;;;;;;;;;;4898770;29;20046;-68
2022/03/13 13:17:29;;;;;;;7.05;4.13;;;;;;;;;;4899213;29;20476;-71
2022/03/13 13:20:00;;;;;;;5.95;4.10;;;;;;;;;;4899283;29;20032;-71
2022/03/13 13:22:28;;;;;;;10.55;6.10;;;;;;;;;;4899253;29;20421;-67
2022/03/13 13:24:56;;;;;;;13.57;7.70;;;;;;;;;;4899215;29;20036;-69
2022/03/13 13:27:42;;;;;;;13.52;6.03;;;;;;;;;;4897700;29;20040;-66
2022/03/13 13:30:34;;;;;;;9.38;5.88;;;;;;;;;;4899149;29;20094;-68
2022/03/13 13:33:02;;;;;;;8.77;5.40;;;;;;;;;;4899056;29;20040;-68
2022/03/13 13:35:37;;;;;;;6.82;4.20;;;;;;;;;;4899440;29;20079;-68
2022/03/13 13:38:19;;;;;;;15.55;8.68;;;;;;;;;;4899015;29;20032;-67
2022/03/13 13:40:57;;;;;;;16.05;8.60;;;;;;;;;;4899046;29;20056;-68
2022/03/13 13:43:27;;;;;;;12.85;7.75;;;;;;;;;;4898976;29;20056;-69
2022/03/13 13:46:03;;;;;;;10.75;6.30;;;;;;;;;;4899078;29;20068;-68
2022/03/13 13:48:33;;;;;;;11.50;4.55;;;;;;;;;;4899033;29;20472;-68
2022/03/13 13:51:13;;;;;;;9.85;6.15;;;;;;;;;;4898928;29;20099;-66
2022/03/13 13:53:53;;;;;;;9.73;5.70;;;;;;;;;;4898666;29;20040;-69
2022/03/13 13:56:36;;;;;;;7.15;4.50;;;;;;;;;;4899017;29;20040;-68
2022/03/13 13:59:23;;;;;;;11.93;6.10;;;;;;;;;;4899180;29;20372;-67
2022/03/13 14:01:52;;;;;;;8.73;4.20;;;;;;;;;;4899103;29;20399;-68
2022/03/13 14:04:19;;;;;;;19.65;5.10;;;;;;;;;;4893612;29;20029;-69
2022/03/13 14:06:46;;;;;;;8.65;4.82;;;;;;;;;;4897887;29;20068;-69
2022/03/13 14:09:12;;;;;;;8.80;5.57;;;;;;;;;;4912234;29;20072;-68
2022/03/13 14:11:40;;;;;;;7.75;4.53;;;;;;;;;;4897619;29;20047;-67
2022/03/13 14:14:07;;;;;;;7.93;4.75;;;;;;;;;;4897525;29;20044;-68
2022/03/13 14:16:34;;;;;;;7.93;4.57;;;;;;;;;;4897363;29;20074;-67
2022/03/13 14:19:00;;;;;;;8.27;5.22;;;;;;;;;;4897531;29;20068;-69
2022/03/13 14:21:25;;;;;;;8.30;5.28;;;;;;;;;;4897295;29;20059;-69
2022/03/13 14:23:51;;;;;;;7.35;4.50;;;;;;;;;;4897449;29;20029;-70
2022/03/13 14:26:17;;;;;;;5.80;4.00;;;;;;;;;;4896425;29;20075;-69
2022/03/13 14:28:43;;;;;;;7.30;4.90;;;;;;;;;;4896135;29;20031;-71
2022/03/13 14:31:09;;;;;;;8.07;5.13;;;;;;;;;;4897846;29;20116;-68